createdAt,value
2018-06-29T00:00:03.542Z,22.00
2018-06-29T00:02:32.034Z,22.00
2018-06-29T00:05:00.643Z,21.90
2018-06-29T00:07:29.384Z,21.90
2018-06-29T00:09:57.870Z,21.90
2018-06-29T00:12:26.359Z,21.90
2018-06-29T00:14:54.869Z,21.80
2018-06-29T00:17:23.308Z,21.80
2018-06-29T00:19:51.816Z,21.80
2018-06-29T00:22:20.333Z,21.80
2018-06-29T00:24:49.518Z,21.80
2018-06-29T00:27:17.994Z,21.80
2018-06-29T00:29:46.508Z,21.80
2018-06-29T00:32:15.745Z,21.80
2018-06-29T00:34:44.294Z,21.80
2018-06-29T00:37:12.782Z,21.70
2018-06-29T00:39:41.891Z,21.70
2018-06-29T00:42:10.390Z,21.70
2018-06-29T00:44:38.863Z,21.70
2018-06-29T00:47:07.378Z,21.70
2018-06-29T00:49:35.899Z,21.70
2018-06-29T00:52:06.392Z,21.70
2018-06-29T00:54:36.470Z,21.70
2018-06-29T00:57:05.595Z,21.70
2018-06-29T00:59:34.070Z,21.60
2018-06-29T01:02:02.618Z,21.60
2018-06-29T01:04:31.086Z,21.60
2018-06-29T01:11:56.126Z,21.50
2018-06-29T01:14:24.605Z,21.50
2018-06-29T01:16:53.089Z,21.50
2018-06-29T01:19:21.610Z,21.40
2018-06-29T01:21:50.088Z,21.40
2018-06-29T01:24:18.715Z,21.40
2018-06-29T01:26:47.180Z,21.30
2018-06-29T01:29:15.627Z,21.30
2018-06-29T01:31:45.408Z,21.20
2018-06-29T01:34:13.872Z,21.20
2018-06-29T01:36:42.393Z,21.20
2018-06-29T01:39:11.019Z,21.10
2018-06-29T01:41:39.481Z,21.10
2018-06-29T01:44:07.934Z,21.10
2018-06-29T01:46:36.409Z,21.10
2018-06-29T01:49:05.698Z,21.00
2018-06-29T01:51:34.997Z,21.00
2018-06-29T01:54:03.665Z,20.90
2018-06-29T01:56:32.237Z,20.90
2018-06-29T01:59:00.951Z,20.90
2018-06-29T02:01:29.438Z,20.90
2018-06-29T02:03:57.930Z,20.90
2018-06-29T02:06:26.649Z,20.90
2018-06-29T02:08:55.118Z,20.90
2018-06-29T02:11:23.877Z,20.90
2018-06-29T02:13:52.723Z,20.90
2018-06-29T02:16:21.281Z,20.90
2018-06-29T02:18:49.761Z,20.90
2018-06-29T02:21:18.257Z,20.90
2018-06-29T02:23:46.733Z,20.90
2018-06-29T02:26:15.286Z,20.90
2018-06-29T02:28:43.937Z,20.80
2018-06-29T02:31:12.399Z,20.90
2018-06-29T02:33:40.865Z,20.80
2018-06-29T02:36:09.324Z,20.80
2018-06-29T02:38:37.835Z,20.80
2018-06-29T02:41:06.759Z,20.80
2018-06-29T02:46:03.546Z,20.70
2018-06-29T02:48:32.087Z,20.60
2018-06-29T02:53:28.930Z,20.50
2018-06-29T02:55:57.466Z,20.40
2018-06-29T02:58:25.895Z,20.40
2018-06-29T03:00:54.627Z,20.40
2018-06-29T03:03:23.081Z,20.30
2018-06-29T03:05:51.754Z,20.40
2018-06-29T03:08:20.261Z,20.30
2018-06-29T03:13:17.036Z,20.30
2018-06-29T03:15:45.494Z,20.30
2018-06-29T03:20:42.251Z,20.20
2018-06-29T03:23:10.743Z,20.30
2018-06-29T03:25:39.426Z,20.30
2018-06-29T03:30:36.160Z,20.30
2018-06-29T03:33:04.731Z,20.40
2018-06-29T03:35:33.145Z,20.50
2018-06-29T03:38:01.631Z,20.50
2018-06-29T03:40:30.151Z,20.60
2018-06-29T03:45:26.784Z,20.50
2018-06-29T03:47:55.922Z,20.50
2018-06-29T03:50:24.376Z,20.50
2018-06-29T03:52:52.941Z,20.40
2018-06-29T03:55:21.439Z,20.30
2018-06-29T03:57:51.045Z,20.40
2018-06-29T04:00:19.693Z,20.50
2018-06-29T04:02:48.180Z,20.70
2018-06-29T04:05:16.966Z,20.70
2018-06-29T04:07:46.439Z,20.90
2018-06-29T04:10:14.913Z,21.00
2018-06-29T04:12:43.434Z,21.10
2018-06-29T04:17:40.285Z,21.30
2018-06-29T04:20:08.810Z,21.40
2018-06-29T04:22:37.297Z,21.50
2018-06-29T04:25:06.562Z,21.60
2018-06-29T04:27:35.110Z,21.60
2018-06-29T04:30:04.304Z,21.60
2018-06-29T04:32:32.762Z,21.70
2018-06-29T04:35:01.282Z,21.80
2018-06-29T04:39:57.993Z,21.80
2018-06-29T04:42:26.482Z,21.90
2018-06-29T04:44:55.514Z,22.00
2018-06-29T04:47:23.979Z,22.10
2018-06-29T04:49:52.677Z,22.20
2018-06-29T04:52:21.123Z,22.30
2018-06-29T04:54:49.654Z,22.40
2018-06-29T04:57:18.802Z,22.40
2018-06-29T04:59:47.259Z,22.50
2018-06-29T05:02:15.801Z,22.50
2018-06-29T05:04:44.372Z,22.60
2018-06-29T05:07:12.846Z,22.60
2018-06-29T05:09:41.362Z,22.60
2018-06-29T05:12:09.915Z,22.60
2018-06-29T05:14:40.244Z,22.70
2018-06-29T05:17:08.685Z,22.80
2018-06-29T05:19:37.192Z,22.80
2018-06-29T05:22:06.118Z,22.80
2018-06-29T05:24:34.643Z,22.80
2018-06-29T05:27:03.227Z,22.50
2018-06-29T05:29:31.875Z,22.40
2018-06-29T05:32:00.359Z,22.30
2018-06-29T05:34:28.821Z,22.10
2018-06-29T05:36:57.391Z,22.00
2018-06-29T05:39:25.875Z,21.90
2018-06-29T05:41:55.071Z,21.90
2018-06-29T05:44:23.539Z,21.90
2018-06-29T05:46:52.109Z,21.90
2018-06-29T05:49:20.671Z,22.00
2018-06-29T05:51:49.790Z,22.50
2018-06-29T05:54:18.263Z,22.70
2018-06-29T05:56:47.289Z,22.90
2018-06-29T05:59:15.871Z,23.00
2018-06-29T06:01:44.438Z,23.20
2018-06-29T06:04:12.893Z,23.30
2018-06-29T06:06:41.399Z,23.40
2018-06-29T06:09:11.576Z,23.40
2018-06-29T06:11:40.837Z,23.50
2018-06-29T06:14:09.365Z,23.70
2018-06-29T06:16:37.810Z,23.70
2018-06-29T06:21:40.087Z,23.90
2018-06-29T06:24:08.962Z,24.00
2018-06-29T06:26:37.455Z,24.00
2018-06-29T06:29:06.290Z,24.10
2018-06-29T06:31:35.051Z,24.20
2018-06-29T06:34:03.586Z,24.20
2018-06-29T06:36:32.411Z,24.30
2018-06-29T06:39:00.930Z,24.40
2018-06-29T06:41:29.842Z,24.40
2018-06-29T06:43:58.320Z,24.50
2018-06-29T06:46:26.805Z,24.60
2018-06-29T06:48:55.301Z,24.70
2018-06-29T06:51:23.754Z,24.70
2018-06-29T06:53:52.242Z,24.70
2018-06-29T06:56:20.720Z,24.70
2018-06-29T06:58:49.445Z,24.80
2018-06-29T07:01:17.902Z,24.80
2018-06-29T07:03:46.423Z,24.90
2018-06-29T07:06:15.869Z,24.90
2018-06-29T07:08:44.364Z,25.00
2018-06-29T07:11:13.004Z,25.00
2018-06-29T07:13:41.527Z,25.10
2018-06-29T07:16:10.027Z,25.10
2018-06-29T07:18:38.703Z,25.20
2018-06-29T07:21:07.202Z,25.30
2018-06-29T07:23:35.733Z,25.30
2018-06-29T07:26:04.417Z,25.40
2018-06-29T07:28:33.266Z,25.40
2018-06-29T07:31:01.785Z,25.40
2018-06-29T07:33:30.243Z,25.50
2018-06-29T07:35:58.913Z,25.50
2018-06-29T07:38:30.569Z,25.60
2018-06-29T07:40:59.315Z,25.70
2018-06-29T07:43:27.841Z,25.70
2018-06-29T07:45:57.588Z,25.90
2018-06-29T07:48:27.557Z,25.90
2018-06-29T07:50:56.146Z,25.90
2018-06-29T07:53:25.094Z,26.00
2018-06-29T07:55:53.713Z,26.00
2018-06-29T07:58:22.978Z,26.10
2018-06-29T08:00:51.418Z,26.10
2018-06-29T08:03:19.920Z,26.20
2018-06-29T08:05:48.525Z,26.30
2018-06-29T08:08:17.110Z,26.40
2018-06-29T08:10:46.153Z,26.50
2018-06-29T08:13:14.626Z,26.40
2018-06-29T08:15:43.096Z,26.60
2018-06-29T08:18:12.682Z,26.60
2018-06-29T08:20:41.437Z,26.70
2018-06-29T08:23:09.995Z,26.70
2018-06-29T08:25:38.506Z,26.80
2018-06-29T08:28:07.047Z,26.90
2018-06-29T08:30:35.530Z,26.90
2018-06-29T08:33:04.042Z,27.00
2018-06-29T08:35:32.598Z,27.00
2018-06-29T08:38:01.114Z,27.00
2018-06-29T08:40:29.594Z,27.10
2018-06-29T08:42:58.138Z,27.10
2018-06-29T08:45:26.666Z,27.20
2018-06-29T08:47:55.329Z,27.20
2018-06-29T08:50:23.834Z,27.30
2018-06-29T08:52:52.350Z,27.30
2018-06-29T08:55:20.795Z,27.40
2018-06-29T08:57:49.334Z,27.40
2018-06-29T09:00:17.818Z,27.40
2018-06-29T09:02:46.326Z,27.40
2018-06-29T09:07:43.098Z,27.60
2018-06-29T09:10:11.538Z,27.70
2018-06-29T09:12:40.045Z,27.80
2018-06-29T09:15:08.514Z,27.80
2018-06-29T09:17:37.022Z,27.70
2018-06-29T09:20:05.537Z,27.80
2018-06-29T09:22:36.280Z,27.70
2018-06-29T09:25:04.780Z,27.70
2018-06-29T09:27:33.428Z,27.70
2018-06-29T09:30:01.978Z,27.70
2018-06-29T09:32:30.794Z,27.70
2018-06-29T09:35:00.574Z,27.80
2018-06-29T09:37:29.174Z,27.90
2018-06-29T09:39:57.654Z,27.90
2018-06-29T09:42:26.435Z,27.80
2018-06-29T09:44:54.898Z,27.90
2018-06-29T09:47:23.420Z,27.80
2018-06-29T09:49:51.908Z,27.90
2018-06-29T09:52:20.527Z,27.90
2018-06-29T09:54:49.780Z,27.90
2018-06-29T09:57:19.080Z,27.90
2018-06-29T09:59:48.460Z,27.90
2018-06-29T10:02:16.985Z,27.90
2018-06-29T10:04:46.258Z,27.90
2018-06-29T10:07:14.922Z,27.90
2018-06-29T10:09:43.411Z,27.90
2018-06-29T10:12:11.922Z,28.00
2018-06-29T10:14:40.425Z,28.00
2018-06-29T10:17:08.926Z,28.00
2018-06-29T10:19:37.652Z,28.00
2018-06-29T10:22:06.199Z,27.90
2018-06-29T10:24:34.742Z,27.90
2018-06-29T10:27:03.295Z,27.90
2018-06-29T10:29:31.783Z,28.00
2018-06-29T10:32:00.425Z,28.00
2018-06-29T10:34:28.970Z,27.90
2018-06-29T10:36:57.445Z,28.00
2018-06-29T10:39:25.937Z,28.00
2018-06-29T10:41:54.424Z,28.00
2018-06-29T10:44:22.933Z,27.90
2018-06-29T10:46:51.415Z,27.90
2018-06-29T10:49:19.997Z,27.90
2018-06-29T10:51:48.495Z,27.90
2018-06-29T10:54:20.774Z,27.90
2018-06-29T10:59:17.743Z,27.90
2018-06-29T11:01:46.305Z,27.90
2018-06-29T11:04:14.787Z,27.80
2018-06-29T11:06:43.331Z,27.90
2018-06-29T11:09:11.828Z,27.80
2018-06-29T11:11:40.272Z,27.80
2018-06-29T11:14:09.506Z,27.70
2018-06-29T11:16:38.014Z,27.70
2018-06-29T11:19:06.770Z,27.60
2018-06-29T11:21:36.170Z,27.60
2018-06-29T11:24:05.481Z,27.60
2018-06-29T11:26:33.931Z,27.60
2018-06-29T11:29:02.476Z,27.60
2018-06-29T11:31:30.950Z,27.50
2018-06-29T11:34:00.441Z,27.50
2018-06-29T11:36:28.920Z,27.40
2018-06-29T11:38:57.877Z,27.40
2018-06-29T11:41:26.386Z,27.40
2018-06-29T11:43:54.974Z,27.40
2018-06-29T11:46:23.478Z,27.40
2018-06-29T11:48:52.542Z,27.30
2018-06-29T11:51:21.095Z,27.30
2018-06-29T11:53:49.587Z,27.30
2018-06-29T11:56:18.163Z,27.30
2018-06-29T11:58:47.542Z,27.20
2018-06-29T12:03:44.590Z,27.20
2018-06-29T12:06:13.526Z,27.10
2018-06-29T12:08:42.182Z,27.10
2018-06-29T12:11:11.100Z,27.10
2018-06-29T12:13:39.963Z,27.20
2018-06-29T12:16:09.081Z,27.20
2018-06-29T12:18:37.737Z,27.20
2018-06-29T12:21:06.855Z,27.20
2018-06-29T12:23:35.302Z,27.30
2018-06-29T12:26:04.471Z,27.30
2018-06-29T12:28:32.969Z,27.40
2018-06-29T12:31:01.519Z,27.40
2018-06-29T12:33:29.983Z,27.50
2018-06-29T12:35:58.990Z,27.50
2018-06-29T12:38:27.474Z,27.50
2018-06-29T12:40:56.046Z,27.60
2018-06-29T12:43:24.573Z,27.60
2018-06-29T12:45:53.082Z,27.70
2018-06-29T12:50:50.331Z,28.90
2018-06-29T12:53:18.815Z,30.10
2018-06-29T12:55:47.389Z,31.00
2018-06-29T12:58:15.924Z,31.80
2018-06-29T13:00:44.533Z,32.60
2018-06-29T13:03:13.709Z,33.20
2018-06-29T13:05:43.030Z,33.70
2018-06-29T13:08:11.532Z,34.50
2018-06-29T13:10:40.014Z,34.90
2018-06-29T13:13:08.574Z,35.40
2018-06-29T13:15:37.053Z,35.60
2018-06-29T13:18:05.558Z,36.20
2018-06-29T13:20:34.062Z,36.90
2018-06-29T13:25:30.816Z,38.10
2018-06-29T13:27:59.390Z,38.30
2018-06-29T13:30:27.981Z,38.70
2018-06-29T13:32:56.525Z,39.30
2018-06-29T13:35:25.164Z,39.70
2018-06-29T13:37:53.711Z,39.90
2018-06-29T13:40:22.223Z,39.90
2018-06-29T13:42:50.840Z,39.30
2018-06-29T13:45:19.347Z,38.70
2018-06-29T13:47:48.787Z,38.80
2018-06-29T13:50:17.413Z,39.20
2018-06-29T13:52:45.889Z,39.90
2018-06-29T13:55:15.002Z,40.40
2018-06-29T13:57:43.514Z,40.50
2018-06-29T14:00:12.203Z,40.20
2018-06-29T14:02:41.002Z,40.50
2018-06-29T14:05:09.861Z,40.80
2018-06-29T14:07:38.338Z,41.30
2018-06-29T14:10:07.669Z,42.00
2018-06-29T14:12:36.151Z,42.50
2018-06-29T14:15:04.732Z,43.10
2018-06-29T14:17:33.264Z,43.50
2018-06-29T14:20:01.783Z,43.80
2018-06-29T14:22:30.327Z,44.10
2018-06-29T14:24:59.077Z,44.40
2018-06-29T14:27:27.594Z,44.40
2018-06-29T14:29:56.207Z,43.90
2018-06-29T14:32:24.691Z,43.50
2018-06-29T14:34:53.696Z,43.00
2018-06-29T14:37:22.314Z,42.50
2018-06-29T14:39:51.019Z,42.40
2018-06-29T14:42:19.539Z,42.70
2018-06-29T14:44:48.005Z,43.00
2018-06-29T14:47:16.602Z,43.70
2018-06-29T14:49:45.097Z,44.40
2018-06-29T14:52:13.602Z,44.70
2018-06-29T14:54:42.076Z,45.00
2018-06-29T14:57:10.643Z,45.40
2018-06-29T14:59:39.374Z,45.70
2018-06-29T15:02:07.886Z,46.00
2018-06-29T15:04:36.349Z,46.50
2018-06-29T15:07:06.861Z,46.60
2018-06-29T15:09:35.527Z,46.90
2018-06-29T15:12:04.046Z,47.30
2018-06-29T15:14:32.521Z,47.80
2018-06-29T15:17:01.097Z,48.00
2018-06-29T15:19:29.796Z,47.80
2018-06-29T15:21:58.509Z,48.10
2018-06-29T15:24:27.614Z,48.30
2018-06-29T15:26:56.258Z,48.50
2018-06-29T15:29:24.806Z,49.00
2018-06-29T15:31:53.407Z,49.20
2018-06-29T15:34:22.323Z,49.00
2018-06-29T15:36:50.799Z,48.80
2018-06-29T15:39:19.377Z,48.00
2018-06-29T15:41:48.799Z,46.50
2018-06-29T15:44:17.315Z,45.90
2018-06-29T15:46:45.779Z,45.50
2018-06-29T15:49:14.312Z,46.30
2018-06-29T15:51:42.986Z,45.10
2018-06-29T15:56:39.665Z,42.90
2018-06-29T15:59:08.220Z,42.50
2018-06-29T16:01:37.536Z,43.90
2018-06-29T16:04:06.770Z,44.60
2018-06-29T16:06:35.237Z,45.20
2018-06-29T16:09:05.994Z,45.40
2018-06-29T16:11:34.478Z,45.60
2018-06-29T16:14:04.151Z,44.40
2018-06-29T16:16:32.772Z,43.20
2018-06-29T16:19:02.166Z,41.80
2018-06-29T16:21:31.112Z,40.10
2018-06-29T16:23:59.665Z,38.90
2018-06-29T16:26:28.151Z,37.90
2018-06-29T16:28:56.682Z,36.90
2018-06-29T16:31:25.383Z,36.10
2018-06-29T16:33:53.894Z,35.50
2018-06-29T16:36:22.402Z,35.00
2018-06-29T16:38:50.934Z,34.70
2018-06-29T16:41:19.451Z,34.40
2018-06-29T16:43:47.969Z,34.10
2018-06-29T16:46:16.516Z,33.80
2018-06-29T16:48:45.058Z,33.40
2018-06-29T16:51:13.551Z,33.20
2018-06-29T16:53:41.976Z,33.00
2018-06-29T16:56:10.553Z,32.90
2018-06-29T16:58:39.062Z,32.70
2018-06-29T17:01:07.591Z,32.60
2018-06-29T17:03:36.059Z,32.40
2018-06-29T17:06:05.459Z,32.30
2018-06-29T17:08:33.914Z,32.20
2018-06-29T17:11:02.431Z,32.00
2018-06-29T17:13:31.031Z,31.80
2018-06-29T17:15:59.579Z,31.60
2018-06-29T17:18:28.078Z,31.40
2018-06-29T17:20:56.600Z,31.20
2018-06-29T17:23:25.106Z,31.00
2018-06-29T17:25:54.812Z,30.80
2018-06-29T17:28:23.266Z,30.80
2018-06-29T17:30:51.831Z,30.70
2018-06-29T17:33:32.046Z,30.60
2018-06-29T17:35:48.819Z,30.50
2018-06-29T17:38:17.433Z,30.50
2018-06-29T17:40:45.912Z,30.40
2018-06-29T17:43:14.451Z,30.30
2018-06-29T17:45:42.899Z,30.20
2018-06-29T17:48:11.450Z,30.10
2018-06-29T17:50:39.943Z,30.00
2018-06-29T17:53:08.478Z,30.00
2018-06-29T17:55:37.144Z,29.90
2018-06-29T17:58:05.870Z,29.80
2018-06-29T18:00:34.422Z,29.80
2018-06-29T18:03:02.939Z,29.70
2018-06-29T18:05:31.445Z,29.60
2018-06-29T18:07:59.951Z,29.60
2018-06-29T18:10:28.686Z,29.50
2018-06-29T18:12:57.292Z,29.50
2018-06-29T18:15:25.695Z,29.40
2018-06-29T18:17:54.210Z,29.30
2018-06-29T18:20:22.747Z,29.20
2018-06-29T18:22:51.381Z,29.20
2018-06-29T18:25:20.072Z,29.10
2018-06-29T18:27:48.804Z,29.00
2018-06-29T18:30:17.908Z,28.90
2018-06-29T18:32:47.009Z,28.90
2018-06-29T18:35:16.104Z,28.80
2018-06-29T18:37:45.124Z,28.70
2018-06-29T18:40:14.284Z,28.60
2018-06-29T18:42:43.382Z,28.60
2018-06-29T18:45:12.498Z,28.50
2018-06-29T18:47:41.572Z,28.40
2018-06-29T18:50:11.284Z,28.40
2018-06-29T18:52:40.385Z,28.30
2018-06-29T18:55:09.887Z,28.20
2018-06-29T18:57:38.944Z,28.20
2018-06-29T19:00:08.280Z,28.10
2018-06-29T19:02:37.373Z,28.00
2018-06-29T19:05:06.470Z,28.00
2018-06-29T19:07:35.565Z,27.90
2018-06-29T19:10:04.826Z,27.80
2018-06-29T19:12:34.398Z,27.70
2018-06-29T19:15:03.345Z,27.60
2018-06-29T19:17:32.162Z,27.60
2018-06-29T19:20:01.043Z,27.50
2018-06-29T19:22:29.905Z,27.40
2018-06-29T19:24:58.734Z,27.30
2018-06-29T19:29:56.400Z,27.10
2018-06-29T19:32:26.223Z,27.00
2018-06-29T19:34:55.368Z,26.90
2018-06-29T19:37:24.516Z,26.80
2018-06-29T19:39:54.987Z,26.70
2018-06-29T19:42:24.128Z,26.60
2018-06-29T19:44:53.435Z,26.60
2018-06-29T19:47:22.529Z,26.50
2018-06-29T19:49:51.607Z,26.40
2018-06-29T19:52:21.559Z,26.30
2018-06-29T19:54:50.425Z,26.20
2018-06-29T19:57:19.051Z,26.10
2018-06-29T19:59:48.016Z,26.00
2018-06-29T20:02:16.493Z,25.90
2018-06-29T20:04:45.177Z,25.90
2018-06-29T20:07:13.688Z,25.80
2018-06-29T20:09:42.746Z,25.70
2018-06-29T20:12:11.451Z,25.70
2018-06-29T20:14:40.204Z,25.60
2018-06-29T20:17:08.771Z,25.50
2018-06-29T20:19:37.393Z,25.40
2018-06-29T20:22:06.186Z,25.40
2018-06-29T20:24:34.873Z,25.40
2018-06-29T20:27:03.406Z,25.30
2018-06-29T20:29:32.498Z,25.20
2018-06-29T20:32:01.141Z,25.10
2018-06-29T20:34:29.822Z,25.10
2018-06-29T20:36:58.355Z,25.10
2018-06-29T20:39:26.881Z,25.00
2018-06-29T20:41:55.382Z,24.90
2018-06-29T20:44:24.091Z,24.90
2018-06-29T20:46:53.313Z,24.90
2018-06-29T20:49:22.345Z,24.80
2018-06-29T20:51:50.876Z,24.80
2018-06-29T20:54:19.678Z,24.80
2018-06-29T20:56:49.326Z,24.70
2018-06-29T20:59:17.972Z,24.70
2018-06-29T21:01:46.707Z,24.60
2018-06-29T21:04:15.235Z,24.60
2018-06-29T21:06:43.986Z,24.50
2018-06-29T21:09:13.267Z,24.50
2018-06-29T21:11:42.720Z,24.40
2018-06-29T21:16:40.243Z,24.30
2018-06-29T21:19:08.755Z,24.20
2018-06-29T21:21:38.533Z,24.20
2018-06-29T21:24:07.036Z,24.10
2018-06-29T21:26:35.907Z,24.10
2018-06-29T21:29:05.541Z,24.00
2018-06-29T21:31:34.831Z,24.00
2018-06-29T21:34:03.862Z,23.90
2018-06-29T21:39:01.472Z,23.80
2018-06-29T21:41:30.044Z,23.80
2018-06-29T21:43:58.512Z,23.70
2018-06-29T21:49:01.494Z,23.60
2018-06-29T21:51:30.546Z,23.60
2018-06-29T21:53:59.067Z,23.50
2018-06-29T21:56:27.617Z,23.40
2018-06-29T21:58:57.644Z,23.40
2018-06-29T22:01:26.283Z,23.30
2018-06-29T22:06:23.055Z,23.20
2018-06-29T22:08:51.583Z,23.20
2018-06-29T22:11:27.589Z,23.10
2018-06-29T22:13:56.131Z,23.10
2018-06-29T22:16:25.704Z,23.10
2018-06-29T22:18:54.252Z,23.00
2018-06-29T22:21:22.777Z,22.90
2018-06-29T22:23:53.503Z,22.90
2018-06-29T22:26:22.091Z,22.80
2018-06-29T22:28:50.647Z,22.80
2018-06-29T22:31:19.252Z,22.70
2018-06-29T22:33:48.065Z,22.70
2018-06-29T22:36:16.779Z,22.60
2018-06-29T22:38:46.151Z,22.50
2018-06-29T22:41:14.680Z,22.50
2018-06-29T22:43:43.370Z,22.40
2018-06-29T22:46:12.545Z,22.40
2018-06-29T22:48:41.083Z,22.30
2018-06-29T22:51:09.718Z,22.30
2018-06-29T22:53:38.692Z,22.30
2018-06-29T22:56:07.224Z,22.20
2018-06-29T22:58:36.242Z,22.20
2018-06-29T23:01:05.847Z,22.20
2018-06-29T23:04:06.921Z,22.20
2018-06-29T23:06:35.505Z,22.10
2018-06-29T23:09:06.252Z,22.00
2018-06-29T23:11:34.763Z,22.00
2018-06-29T23:14:03.486Z,21.90
2018-06-29T23:16:32.107Z,21.90
2018-06-29T23:19:01.216Z,21.80
2018-06-29T23:23:57.919Z,21.70
2018-06-29T23:26:26.406Z,21.70
2018-06-29T23:28:55.052Z,21.60
2018-06-29T23:31:23.536Z,21.60
2018-06-29T23:36:20.366Z,21.50
2018-06-29T23:38:48.821Z,21.40
2018-06-29T23:41:17.389Z,21.40
2018-06-29T23:43:46.094Z,21.40
2018-06-29T23:46:14.601Z,21.30
2018-06-29T23:48:43.078Z,21.30
2018-06-29T23:51:11.592Z,21.30
2018-06-29T23:53:40.120Z,21.20
2018-06-29T23:56:08.751Z,21.20
2018-06-29T23:58:37.280Z,21.10
